Time;durP1;ratioP1;P1;durP2;ratioP2;P2;SDS_P1;SDS_P2;PMS_P1;PMS_P2;Temp;Humidity;BMP_temperature;BMP_pressure;BME280_temperature;BME280_humidity;BME280_pressure;Samples;Min_cycle;Max_cycle;Signal;HPM_P1;HPM_P2
2023/06/05 00:01:59;;;;;;;5.35;3.40;;;12.70;99.90;;;;;;5074968;28;20036;-78
2023/06/05 00:04:25;;;;;;;6.03;3.80;;;12.70;99.90;;;;;;5059030;28;20043;-78
2023/06/05 00:06:51;;;;;;;6.90;3.67;;;12.50;99.90;;;;;;5070403;28;20036;-78
2023/06/05 00:09:17;;;;;;;6.13;3.70;;;12.50;99.90;;;;;;5072461;28;20029;-78
2023/06/05 00:11:42;;;;;;;7.35;3.80;;;12.40;99.90;;;;;;5071199;28;20020;-78
2023/06/05 00:14:08;;;;;;;6.20;4.03;;;12.40;99.90;;;;;;5074607;28;20051;-78
2023/06/05 00:16:35;;;;;;;6.15;3.53;;;12.40;99.90;;;;;;5073029;28;20037;-79
2023/06/05 00:19:01;;;;;;;6.30;4.13;;;12.30;99.90;;;;;;5070288;28;20029;-79
2023/06/05 00:21:27;;;;;;;5.13;3.55;;;12.40;99.90;;;;;;5074019;28;20043;-79
2023/06/05 00:23:52;;;;;;;5.93;3.38;;;12.50;99.90;;;;;;5076064;28;20032;-78
2023/06/05 00:26:18;;;;;;;6.68;3.78;;;12.60;99.90;;;;;;5073681;28;20055;-78
2023/06/05 00:28:43;;;;;;;5.80;3.65;;;12.70;99.90;;;;;;5070086;28;20036;-78
2023/06/05 00:31:09;;;;;;;6.32;3.67;;;12.80;99.90;;;;;;5074247;28;20044;-78
2023/06/05 00:33:35;;;;;;;4.82;3.83;;;12.80;99.90;;;;;;5075688;28;20042;-78
2023/06/05 00:36:00;;;;;;;5.53;4.10;;;12.80;99.90;;;;;;5045587;28;20041;-79
2023/06/05 00:38:26;;;;;;;5.28;3.78;;;12.90;99.90;;;;;;5060367;28;20032;-78
2023/06/05 00:40:52;;;;;;;8.82;4.10;;;12.80;99.90;;;;;;5071602;28;20044;-79
2023/06/05 00:43:17;;;;;;;6.40;4.00;;;12.80;99.90;;;;;;5060412;28;20043;-78
2023/06/05 00:45:43;;;;;;;5.03;3.78;;;12.70;99.90;;;;;;5074145;28;20008;-78
2023/06/05 00:48:10;;;;;;;6.72;3.88;;;12.50;99.90;;;;;;5071147;28;20037;-78
2023/06/05 00:50:36;;;;;;;5.55;3.90;;;12.50;99.90;;;;;;5078069;28;20040;-79
2023/06/05 00:53:03;;;;;;;6.55;4.28;;;12.50;99.90;;;;;;5068582;28;20071;-79
2023/06/05 00:55:29;;;;;;;4.43;3.55;;;12.50;99.90;;;;;;5074613;28;20032;-78
2023/06/05 00:57:55;;;;;;;7.47;4.03;;;12.50;99.90;;;;;;5073500;28;21168;-78
2023/06/05 01:00:22;;;;;;;5.47;4.20;;;12.60;99.90;;;;;;5075625;28;20473;-78
2023/06/05 01:02:47;;;;;;;6.88;4.32;;;12.60;99.90;;;;;;5066685;28;20041;-78
2023/06/05 01:05:14;;;;;;;5.53;3.85;;;12.70;99.90;;;;;;5070523;28;20063;-79
2023/06/05 01:07:40;;;;;;;5.32;4.15;;;12.80;99.90;;;;;;5073169;28;20028;-78
2023/06/05 01:10:08;;;;;;;5.00;3.95;;;12.70;99.90;;;;;;5071734;28;20136;-78
2023/06/05 01:12:55;;;;;;;7.55;4.28;;;12.80;99.90;;;;;;5068059;28;20025;-79
2023/06/05 01:15:28;;;;;;;7.43;4.30;;;12.70;99.90;;;;;;5069124;28;20094;-78
2023/06/05 01:17:58;;;;;;;5.22;3.97;;;12.60;99.90;;;;;;5075311;28;20307;-79
2023/06/05 01:20:32;;;;;;;4.93;4.00;;;12.60;99.90;;;;;;5074764;28;20106;-78
2023/06/05 01:22:58;;;;;;;5.10;4.10;;;12.50;99.90;;;;;;5069372;28;20033;-79
2023/06/05 01:25:23;;;;;;;5.82;4.63;;;12.60;99.90;;;;;;5056237;28;20032;-79
2023/06/05 01:28:15;;;;;;;7.93;4.80;;;12.60;99.90;;;;;;5069605;28;20457;-77
2023/06/05 01:31:13;;;;;;;8.20;4.35;;;12.60;99.90;;;;;;5076067;28;20044;-77
2023/06/05 01:33:49;;;;;;;9.27;4.28;;;12.60;99.90;;;;;;5075815;28;20067;-79
2023/06/05 01:36:15;;;;;;;7.57;4.60;;;12.50;99.90;;;;;;5075907;28;20123;-78
2023/06/05 01:38:43;;;;;;;5.95;4.45;;;12.50;99.90;;;;;;5083402;28;20057;-79
2023/06/05 01:41:10;;;;;;;6.22;4.68;;;12.50;99.90;;;;;;5083818;28;20028;-79
2023/06/05 01:43:37;;;;;;;7.27;4.37;;;12.60;99.90;;;;;;5084724;28;20033;-78
2023/06/05 01:46:07;;;;;;;8.40;4.10;;;12.70;99.90;;;;;;5081022;28;20028;-78
2023/06/05 01:48:33;;;;;;;7.72;4.78;;;12.80;99.90;;;;;;5082030;28;20044;-78
2023/06/05 01:51:00;;;;;;;7.88;4.72;;;12.70;99.90;;;;;;5079593;28;20059;-78
2023/06/05 01:53:27;;;;;;;9.75;5.20;;;12.60;99.90;;;;;;5077421;28;20068;-78
2023/06/05 01:55:57;;;;;;;7.38;4.63;;;12.60;99.90;;;;;;5074410;28;20131;-79
2023/06/05 01:58:23;;;;;;;10.10;4.85;;;12.50;99.90;;;;;;5081414;28;20037;-78
2023/06/05 02:00:49;;;;;;;6.97;4.43;;;12.50;99.90;;;;;;5079804;28;20032;-78
2023/06/05 02:03:17;;;;;;;7.78;4.50;;;12.60;99.90;;;;;;5074851;28;20153;-79
2023/06/05 02:05:43;;;;;;;6.57;4.25;;;12.60;99.90;;;;;;5080257;28;20017;-78
2023/06/05 02:08:10;;;;;;;5.38;4.25;;;12.70;99.90;;;;;;5085371;28;20058;-78
2023/06/05 02:10:37;;;;;;;6.10;4.35;;;12.70;99.90;;;;;;5085036;28;20039;-78
2023/06/05 02:13:03;;;;;;;5.38;4.22;;;12.70;99.90;;;;;;5086021;28;20020;-78
2023/06/05 02:15:31;;;;;;;7.47;4.30;;;12.80;99.90;;;;;;5075726;28;20032;-78
2023/06/05 02:17:58;;;;;;;6.35;4.20;;;12.70;99.90;;;;;;5082994;28;20029;-78
2023/06/05 02:20:28;;;;;;;5.75;3.95;;;12.70;99.90;;;;;;5082992;28;20064;-78
2023/06/05 02:22:54;;;;;;;6.25;4.28;;;12.70;99.90;;;;;;5076471;28;20037;-78
2023/06/05 02:25:21;;;;;;;5.70;4.40;;;12.80;99.90;;;;;;5078349;28;20074;-78
2023/06/05 02:27:47;;;;;;;4.97;4.18;;;12.70;99.90;;;;;;5063485;28;20029;-77
2023/06/05 02:30:13;;;;;;;4.40;3.88;;;12.80;99.90;;;;;;5079832;28;20429;-78
2023/06/05 02:32:43;;;;;;;5.07;4.00;;;12.70;99.90;;;;;;5077562;28;20036;-78
2023/06/05 02:35:10;;;;;;;6.05;4.82;;;12.70;99.90;;;;;;5077040;28;20039;-79
2023/06/05 02:37:43;;;;;;;6.95;4.20;;;12.60;99.90;;;;;;5080390;28;20177;-78
2023/06/05 02:40:10;;;;;;;6.38;4.50;;;12.60;99.90;;;;;;5073177;28;20042;-78
2023/06/05 02:42:36;;;;;;;5.63;4.10;;;12.60;99.90;;;;;;5079675;28;20024;-79
2023/06/05 02:45:02;;;;;;;8.05;4.70;;;12.60;99.90;;;;;;5079934;28;20028;-79
2023/06/05 02:47:28;;;;;;;6.50;4.28;;;12.60;99.90;;;;;;5076461;28;20032;-77
2023/06/05 02:49:54;;;;;;;4.78;4.00;;;12.60;99.90;;;;;;5082919;28;20024;-78
2023/06/05 02:52:20;;;;;;;5.88;3.75;;;12.60;99.90;;;;;;5081094;28;20063;-78
2023/06/05 02:54:46;;;;;;;6.50;3.95;;;12.70;99.90;;;;;;5065265;28;20075;-78
2023/06/05 02:57:12;;;;;;;6.15;4.20;;;12.70;99.90;;;;;;5064088;28;20048;-77
2023/06/05 02:59:39;;;;;;;5.90;3.90;;;12.80;99.90;;;;;;5078123;28;20029;-77
2023/06/05 03:02:08;;;;;;;5.38;3.78;;;12.80;99.90;;;;;;5075710;28;20039;-78
2023/06/05 03:04:34;;;;;;;6.10;3.90;;;12.80;99.90;;;;;;5071604;28;20033;-78
2023/06/05 03:07:03;;;;;;;5.18;3.45;;;12.80;99.90;;;;;;5074373;28;20509;-77
2023/06/05 03:09:30;;;;;;;5.10;3.70;;;12.90;99.90;;;;;;5078467;28;20031;-78
2023/06/05 03:11:56;;;;;;;5.55;4.00;;;12.80;99.90;;;;;;5081126;28;20075;-79
2023/06/05 03:14:22;;;;;;;6.97;3.75;;;12.80;99.90;;;;;;5074927;28;20471;-79
2023/06/05 03:16:48;;;;;;;6.07;4.18;;;12.90;99.90;;;;;;5075551;28;20032;-77
2023/06/05 03:19:13;;;;;;;5.57;3.88;;;12.80;99.90;;;;;;5073598;28;20047;-78
2023/06/05 03:21:42;;;;;;;4.63;3.72;;;12.90;99.90;;;;;;5077969;28;20546;-78
2023/06/05 03:24:10;;;;;;;7.95;3.67;;;12.90;99.90;;;;;;5071198;28;20029;-77
2023/06/05 03:26:39;;;;;;;12.00;4.60;;;12.90;99.90;;;;;;5080058;28;20033;-78
2023/06/05 03:29:05;;;;;;;;;;;12.80;99.90;;;;;;5081637;28;20132;-77
2023/06/05 03:31:31;;;;;;;6.35;3.97;;;12.70;99.90;;;;;;5080929;28;19970;-78
2023/06/05 03:33:58;;;;;;;8.70;3.97;;;12.80;99.90;;;;;;5081559;28;20825;-78
2023/06/05 03:36:23;;;;;;;6.95;4.30;;;12.70;99.90;;;;;;5078860;28;20033;-78
2023/06/05 03:38:49;;;;;;;5.40;4.00;;;12.70;99.90;;;;;;5079325;28;20112;-77
2023/06/05 03:41:15;;;;;;;5.90;3.58;;;12.70;99.90;;;;;;5078722;28;20107;-77
2023/06/05 03:43:53;;;;;;;7.20;4.45;;;12.70;99.90;;;;;;5077011;28;20632;-79
2023/06/05 03:46:19;;;;;;;6.57;4.32;;;12.70;99.90;;;;;;5086608;28;20090;-78
2023/06/05 03:48:45;;;;;;;4.45;3.60;;;12.60;99.90;;;;;;5088691;28;20033;-79
2023/06/05 03:51:12;;;;;;;7.78;3.90;;;12.60;99.90;;;;;;5082040;28;20111;-79
2023/06/05 03:53:39;;;;;;;7.13;3.90;;;12.70;99.90;;;;;;5061859;28;20041;-77
2023/06/05 03:56:06;;;;;;;6.70;4.03;;;12.70;99.90;;;;;;5082897;28;20555;-78
2023/06/05 03:58:32;;;;;;;5.28;4.13;;;12.70;99.90;;;;;;5064554;28;20047;-78
2023/06/05 04:00:58;;;;;;;7.78;4.22;;;12.70;99.90;;;;;;5081636;28;20036;-78
2023/06/05 04:03:25;;;;;;;6.13;4.25;;;12.70;99.90;;;;;;5084943;28;20043;-78
2023/06/05 04:05:51;;;;;;;6.28;3.92;;;12.60;99.90;;;;;;5078633;28;20029;-78
2023/06/05 04:08:17;;;;;;;6.28;4.22;;;12.70;99.90;;;;;;5082756;28;20029;-78
2023/06/05 04:10:43;;;;;;;6.30;3.78;;;12.70;99.90;;;;;;5084352;28;20039;-78
2023/06/05 04:13:09;;;;;;;5.50;3.85;;;12.70;99.90;;;;;;5085586;28;20032;-79
2023/06/05 04:15:35;;;;;;;5.57;3.97;;;12.60;99.90;;;;;;5077712;28;20060;-79
2023/06/05 04:18:00;;;;;;;8.00;3.90;;;12.70;99.90;;;;;;5077127;28;20021;-79
2023/06/05 04:20:26;;;;;;;9.05;4.40;;;12.70;99.90;;;;;;5079147;28;20024;-78
2023/06/05 04:22:52;;;;;;;5.57;4.18;;;12.80;99.90;;;;;;5079019;28;20060;-78
2023/06/05 04:25:17;;;;;;;6.45;4.05;;;12.90;99.90;;;;;;5065602;28;20044;-78
2023/06/05 04:27:45;;;;;;;6.75;3.92;;;12.90;99.90;;;;;;5081866;28;20033;-78
2023/06/05 04:30:12;;;;;;;5.00;3.60;;;13.00;99.90;;;;;;5074033;28;20044;-78
2023/06/05 04:32:39;;;;;;;7.93;4.97;;;13.10;99.90;;;;;;5076087;28;20101;-78
2023/06/05 04:35:06;;;;;;;6.50;3.67;;;13.20;99.90;;;;;;5080133;28;20786;-79
2023/06/05 04:37:32;;;;;;;10.27;4.63;;;13.30;99.90;;;;;;5074244;28;20040;-79
2023/06/05 04:40:05;;;;;;;5.63;3.72;;;13.40;99.90;;;;;;5080484;28;20512;-78
2023/06/05 04:42:33;;;;;;;7.57;4.00;;;13.40;99.90;;;;;;5069209;28;20021;-78
2023/06/05 04:45:05;;;;;;;5.50;4.20;;;13.50;99.90;;;;;;5078845;28;20036;-78
2023/06/05 04:47:32;;;;;;;6.35;4.00;;;13.50;99.90;;;;;;5078223;28;20032;-77
2023/06/05 04:50:05;;;;;;;5.50;4.30;;;13.60;99.90;;;;;;5068831;28;20096;-78
2023/06/05 04:52:39;;;;;;;7.28;4.47;;;13.60;99.90;;;;;;5080460;28;20400;-78
2023/06/05 04:55:06;;;;;;;5.35;4.32;;;13.70;99.90;;;;;;5077565;28;20495;-78
2023/06/05 04:57:31;;;;;;;5.13;3.83;;;13.80;99.90;;;;;;5078439;28;20037;-78
2023/06/05 04:59:57;;;;;;;6.60;4.07;;;13.80;99.90;;;;;;5075199;28;20514;-78
2023/06/05 05:02:23;;;;;;;7.70;4.43;;;13.90;99.90;;;;;;5072541;28;20032;-78
2023/06/05 05:04:49;;;;;;;8.18;4.30;;;13.90;99.90;;;;;;5056762;28;20024;-78
2023/06/05 05:07:16;;;;;;;6.60;4.47;;;14.00;99.90;;;;;;5079053;28;20430;-78
2023/06/05 05:09:42;;;;;;;5.40;4.00;;;14.00;99.90;;;;;;5074395;28;20021;-78
2023/06/05 05:12:09;;;;;;;6.53;4.43;;;14.20;99.90;;;;;;5076921;28;20020;-79
2023/06/05 05:14:35;;;;;;;4.78;4.28;;;14.20;99.90;;;;;;5078602;28;20129;-77
2023/06/05 05:17:02;;;;;;;6.65;4.28;;;14.30;99.90;;;;;;5076764;28;20043;-78
2023/06/05 05:19:28;;;;;;;9.30;3.90;;;14.40;99.90;;;;;;5076477;28;20025;-79
2023/06/05 05:21:54;;;;;;;6.30;4.28;;;14.40;99.90;;;;;;5074523;28;20028;-78
2023/06/05 05:24:20;;;;;;;6.68;3.60;;;14.50;99.90;;;;;;5076640;28;20119;-76
2023/06/05 05:26:46;;;;;;;6.65;4.18;;;14.70;99.90;;;;;;5077522;28;20059;-78
2023/06/05 05:29:12;;;;;;;8.85;4.18;;;14.80;99.90;;;;;;5076275;28;20039;-78
2023/06/05 05:31:37;;;;;;;8.68;4.80;;;14.80;99.90;;;;;;5058613;28;20051;-78
2023/06/05 05:34:04;;;;;;;8.40;4.20;;;14.90;99.90;;;;;;5059566;28;20052;-77
2023/06/05 05:36:29;;;;;;;9.23;4.47;;;14.90;99.90;;;;;;5077176;28;20043;-78
2023/06/05 05:38:55;;;;;;;6.63;4.30;;;15.00;99.90;;;;;;5080912;28;20033;-79
2023/06/05 05:41:21;;;;;;;7.28;4.25;;;15.10;99.90;;;;;;5081531;28;20028;-77
2023/06/05 05:43:47;;;;;;;5.82;4.45;;;15.20;99.90;;;;;;5082583;28;20016;-79
2023/06/05 05:46:14;;;;;;;6.97;4.35;;;15.20;99.90;;;;;;5061448;28;20044;-78
2023/06/05 05:48:39;;;;;;;7.40;4.22;;;15.40;99.90;;;;;;5073561;28;20033;-77
2023/06/05 05:51:06;;;;;;;6.18;4.00;;;15.50;99.90;;;;;;5052615;28;20039;-77
2023/06/05 05:53:32;;;;;;;8.18;4.25;;;15.50;99.90;;;;;;5077885;28;20048;-78
2023/06/05 05:55:58;;;;;;;6.18;4.15;;;15.70;99.90;;;;;;5069737;28;20043;-78
2023/06/05 05:58:25;;;;;;;5.30;4.68;;;15.80;99.90;;;;;;5072000;28;20028;-77
2023/06/05 06:00:52;;;;;;;7.97;4.50;;;15.90;99.90;;;;;;5073829;28;20373;-78
2023/06/05 06:03:19;;;;;;;7.25;4.10;;;16.10;99.90;;;;;;5073322;28;20358;-80
2023/06/05 06:05:45;;;;;;;6.15;4.22;;;16.20;99.90;;;;;;5081942;28;20025;-78
2023/06/05 06:08:11;;;;;;;5.78;4.10;;;16.40;99.90;;;;;;5056907;28;20017;-78
2023/06/05 06:10:40;;;;;;;4.93;4.25;;;16.50;99.90;;;;;;5075148;28;20072;-80
2023/06/05 06:13:09;;;;;;;7.13;4.20;;;16.60;99.90;;;;;;5061228;28;20036;-78
2023/06/05 06:15:47;;;;;;;7.47;4.28;;;16.80;99.90;;;;;;5057115;28;20037;-77
2023/06/05 06:18:13;;;;;;;7.57;4.28;;;16.90;99.90;;;;;;5070970;28;20058;-77
2023/06/05 06:20:39;;;;;;;5.50;4.00;;;16.90;99.90;;;;;;5042500;28;20025;-76
2023/06/05 06:23:32;;;;;;;7.22;4.45;;;16.90;99.90;;;;;;5080305;28;20028;-78
2023/06/05 06:25:58;;;;;;;4.88;3.60;;;17.00;99.90;;;;;;5073760;28;20028;-77
2023/06/05 06:28:25;;;;;;;8.23;3.78;;;17.10;99.90;;;;;;5070200;28;20024;-78
2023/06/05 06:30:51;;;;;;;5.40;3.33;;;17.10;99.90;;;;;;5072737;28;20029;-78
2023/06/05 06:33:17;;;;;;;7.05;3.40;;;17.10;99.90;;;;;;5072251;28;20031;-78
2023/06/05 06:35:43;;;;;;;5.95;3.72;;;17.20;99.90;;;;;;5075938;28;20037;-77
2023/06/05 06:38:09;;;;;;;4.78;3.67;;;17.30;99.90;;;;;;5069554;28;20039;-78
2023/06/05 06:41:44;;;;;;;;;;;;;;;;;;;;;
2023/06/05 06:45:09;;;;;;;5.63;3.70;;;17.50;99.90;;;;;;5055068;28;20113;-80
2023/06/05 06:48:13;;;;;;;7.15;4.15;;;17.60;99.90;;;;;;5078610;28;20028;-79
2023/06/05 06:54:14;;;;;;;5.15;3.50;;;17.90;99.90;;;;;;4946181;28;20068;-79
2023/06/05 06:56:49;;;;;;;9.00;4.88;;;18.00;99.90;;;;;;5078729;28;20080;-80
2023/06/05 06:59:22;;;;;;;5.95;4.75;;;18.00;99.90;;;;;;5074855;28;20044;-79
2023/06/05 07:02:10;;;;;;;7.25;4.50;;;18.10;99.90;;;;;;5075812;28;20105;-78
2023/06/05 07:04:46;;;;;;;6.97;4.88;;;18.20;99.90;;;;;;5081592;28;20482;-80
2023/06/05 07:07:14;;;;;;;8.02;4.57;;;18.30;99.90;;;;;;5064054;28;20094;-80
2023/06/05 07:09:44;;;;;;;8.52;4.40;;;18.50;99.90;;;;;;5074641;28;20102;-79
2023/06/05 07:12:30;;;;;;;6.88;4.45;;;18.70;99.90;;;;;;5086043;28;20047;-80
2023/06/05 07:14:56;;;;;;;5.88;5.00;;;18.60;99.90;;;;;;5077894;28;20095;-79
2023/06/05 07:17:28;;;;;;;6.50;4.38;;;18.70;99.90;;;;;;5086326;28;20036;-79
2023/06/05 07:19:53;;;;;;;7.95;4.47;;;18.70;99.90;;;;;;5085640;28;20041;-79
2023/06/05 07:22:20;;;;;;;5.47;4.40;;;18.80;99.90;;;;;;5067078;28;20065;-78
2023/06/05 07:24:49;;;;;;;5.30;4.50;;;18.90;99.90;;;;;;5063182;28;20031;-77
2023/06/05 07:27:17;;;;;;;7.05;4.45;;;19.00;99.90;;;;;;5077445;28;20021;-79
2023/06/05 07:29:53;;;;;;;9.98;5.32;;;19.00;99.90;;;;;;5085269;28;20055;-76
2023/06/05 07:32:21;;;;;;;5.10;4.57;;;19.20;99.90;;;;;;5070627;28;20029;-76
2023/06/05 07:34:53;;;;;;;8.50;4.93;;;19.30;99.90;;;;;;5078694;28;20028;-76
2023/06/05 07:37:18;;;;;;;24.10;16.05;;;19.30;99.90;;;;;;5060817;28;20041;-77
2023/06/05 07:39:46;;;;;;;7.80;4.90;;;19.40;99.90;;;;;;5065060;28;20060;-78
2023/06/05 07:42:12;;;;;;;;;;;19.30;99.90;;;;;;5072657;28;20054;-78
2023/06/05 07:44:38;;;;;;;6.15;4.65;;;19.20;99.90;;;;;;5083415;28;19948;-78
2023/06/05 07:47:04;;;;;;;6.22;4.88;;;19.20;99.90;;;;;;5082370;28;20029;-78
2023/06/05 07:50:06;;;;;;;9.48;5.35;;;19.20;99.90;;;;;;5078554;28;20124;-78
2023/06/05 07:56:07;;;;;;;9.95;5.50;;;19.50;99.90;;;;;;5020345;28;20072;-79
2023/06/05 07:58:34;;;;;;;7.55;4.90;;;19.50;99.90;;;;;;5060817;28;20048;-79
2023/06/05 08:01:02;;;;;;;9.93;5.50;;;19.70;99.90;;;;;;5056899;28;20040;-78
2023/06/05 08:03:30;;;;;;;5.70;5.03;;;19.90;99.90;;;;;;5081848;28;20283;-79
2023/06/05 08:05:59;;;;;;;6.78;4.88;;;20.00;99.90;;;;;;5079583;28;20059;-79
2023/06/05 08:08:28;;;;;;;8.50;5.30;;;20.00;99.90;;;;;;5085756;28;20033;-79
2023/06/05 08:10:55;;;;;;;6.25;4.97;;;20.00;99.90;;;;;;5078384;28;20025;-79
2023/06/05 08:14:00;;;;;;;8.32;5.15;;;19.90;99.90;;;;;;5081842;28;20056;-78
2023/06/05 08:16:29;;;;;;;7.68;4.93;;;19.80;99.90;;;;;;5075250;28;20553;-78
2023/06/05 08:18:57;;;;;;;8.90;5.28;;;19.90;99.90;;;;;;5068877;28;20042;-79
2023/06/05 08:22:01;;;;;;;7.00;5.13;;;20.10;99.90;;;;;;5059402;28;20031;-78
2023/06/05 08:24:30;;;;;;;9.10;5.40;;;20.40;99.90;;;;;;5070509;28;20591;-78
2023/06/05 08:27:48;;;;;;;6.10;5.40;;;20.30;99.90;;;;;;5081435;28;20401;-78
2023/06/05 08:33:29;;;;;;;5.40;4.80;;;20.30;99.90;;;;;;5065844;28;20040;-78
2023/06/05 08:36:05;;;;;;;5.82;5.22;;;20.30;99.90;;;;;;5064162;28;20489;-79
2023/06/05 08:38:51;;;;;;;;;;;;;;;;;;;;;
2023/06/05 08:42:04;;;;;;;;;;;;;;;;;;;;;
2023/06/05 08:44:38;;;;;;;5.53;4.90;;;20.70;99.90;;;;;;5060244;28;20032;-78
2023/06/05 08:47:25;;;;;;;;;;;;;;;;;;;;;
2023/06/05 08:53:34;;;;;;;8.85;4.68;;;20.80;99.90;;;;;;5032770;28;20048;-78
2023/06/05 09:03:02;;;;;;;6.63;5.38;;;21.00;99.90;;;;;;4980068;28;20110;-78
2023/06/05 09:05:58;;;;;;;4.50;3.83;;;21.10;99.90;;;;;;4943871;29;20059;-78
2023/06/05 09:09:01;;;;;;;7.32;5.18;;;21.10;99.90;;;;;;4961329;28;20045;-79
2023/06/05 09:12:05;;;;;;;7.03;4.88;;;21.00;99.90;;;;;;4960927;29;20059;-79
2023/06/05 09:15:02;;;;;;;8.70;4.97;;;21.00;99.90;;;;;;4941738;28;20035;-78
2023/06/05 09:18:17;;;;;;;7.57;4.30;;;21.20;99.90;;;;;;5064086;28;20070;-77
2023/06/05 09:21:10;;;;;;;5.38;4.45;;;21.40;99.90;;;;;;4983937;28;20034;-77
2023/06/05 09:27:43;;;;;;;7.07;4.22;;;21.40;99.90;;;;;;5027380;28;20039;-79
2023/06/05 09:37:38;;;;;;;4.20;3.80;;;21.90;99.90;;;;;;4992072;28;20042;-78
2023/06/05 09:40:44;;;;;;;;;;;;;;;;;;;;;
2023/06/05 09:43:42;;;;;;;5.25;4.45;;;21.60;99.90;;;;;;4996431;28;20141;-82
2023/06/05 09:47:08;;;;;;;9.38;4.38;;;21.40;99.90;;;;;;5070357;28;20110;-77
2023/06/05 09:52:40;;;;;;;4.47;4.07;;;21.60;99.90;;;;;;5069047;28;20036;-77
2023/06/05 09:55:07;;;;;;;4.65;4.15;;;21.60;99.90;;;;;;5076590;28;20048;-78
2023/06/05 09:57:33;;;;;;;5.32;4.20;;;21.70;99.90;;;;;;5071861;28;20076;-79
2023/06/05 10:00:04;;;;;;;6.80;4.20;;;21.70;99.90;;;;;;5076893;28;20115;-80
2023/06/05 10:02:35;;;;;;;4.00;3.60;;;21.80;99.90;;;;;;5078175;28;20052;-79
2023/06/05 10:05:03;;;;;;;4.55;3.60;;;22.10;99.90;;;;;;5071773;28;20032;-77
2023/06/05 10:07:36;;;;;;;5.18;4.13;;;22.30;99.90;;;;;;5074808;28;20036;-78
2023/06/05 10:10:02;;;;;;;6.28;3.72;;;22.20;99.90;;;;;;5074587;28;20043;-79
2023/06/05 10:12:30;;;;;;;5.35;3.58;;;22.30;99.90;;;;;;5071992;28;20040;-78
2023/06/05 10:14:57;;;;;;;6.05;4.45;;;22.40;99.90;;;;;;5055356;28;20060;-77
2023/06/05 10:17:23;;;;;;;4.07;3.38;;;22.40;99.90;;;;;;5064662;28;20037;-77
2023/06/05 10:19:50;;;;;;;4.97;3.88;;;22.30;99.90;;;;;;5069932;28;20025;-77
2023/06/05 10:22:18;;;;;;;3.90;3.08;;;22.60;99.90;;;;;;5069471;28;20409;-76
2023/06/05 10:24:54;;;;;;;7.55;4.40;;;22.70;99.90;;;;;;5075892;28;20484;-77
2023/06/05 10:27:37;;;;;;;5.15;3.65;;;22.90;99.90;;;;;;5075513;28;20032;-76
2023/06/05 10:30:40;;;;;;;8.32;4.28;;;22.90;99.90;;;;;;5064134;28;20492;-77
2023/06/05 10:33:28;;;;;;;4.47;3.80;;;22.90;99.90;;;;;;5079739;28;20040;-79
2023/06/05 10:36:28;;;;;;;8.20;3.85;;;22.60;99.90;;;;;;5060222;28;20079;-78
2023/06/05 10:39:25;;;;;;;4.95;3.80;;;22.60;99.90;;;;;;5073042;28;20021;-77
2023/06/05 10:41:51;;;;;;;4.30;3.22;;;22.60;99.90;;;;;;5060173;28;20060;-77
2023/06/05 10:44:17;;;;;;;4.05;3.75;;;22.70;99.90;;;;;;5072878;28;20036;-78
2023/06/05 10:46:43;;;;;;;6.32;3.13;;;23.00;99.90;;;;;;5079921;28;20016;-77
2023/06/05 10:49:11;;;;;;;3.60;3.30;;;23.00;99.90;;;;;;5069298;28;20028;-77
2023/06/05 10:51:42;;;;;;;4.35;3.28;;;23.10;99.90;;;;;;5076817;28;20123;-76
2023/06/05 10:54:16;;;;;;;6.65;3.80;;;23.00;99.90;;;;;;5063061;28;20016;-77
2023/06/05 10:56:51;;;;;;;5.45;3.97;;;23.10;99.90;;;;;;5060657;28;20069;-78
2023/06/05 10:59:20;;;;;;;4.72;3.75;;;23.20;99.90;;;;;;5071426;28;20051;-78
2023/06/05 11:02:11;;;;;;;6.50;4.15;;;23.10;99.90;;;;;;5066732;28;20113;-77
2023/06/05 11:04:43;;;;;;;6.00;3.75;;;23.10;99.90;;;;;;5065501;28;20021;-77
2023/06/05 11:07:16;;;;;;;6.85;4.68;;;23.10;99.90;;;;;;5071228;28;20501;-77
2023/06/05 11:10:02;;;;;;;3.78;3.30;;;23.40;99.90;;;;;;5073074;28;20089;-77
2023/06/05 11:12:42;;;;;;;5.80;3.55;;;23.70;99.90;;;;;;5075571;28;20480;-78
2023/06/05 11:15:11;;;;;;;4.10;3.63;;;23.70;99.90;;;;;;5072265;28;20032;-78
2023/06/05 11:17:39;;;;;;;4.63;4.10;;;23.70;99.90;;;;;;5072864;28;20143;-79
2023/06/05 11:20:11;;;;;;;6.05;3.72;;;23.70;99.90;;;;;;5078298;28;20433;-80
2023/06/05 11:23:00;;;;;;;5.38;3.63;;;23.50;99.90;;;;;;5073306;28;20028;-78
2023/06/05 11:25:28;;;;;;;5.13;3.72;;;23.50;99.90;;;;;;5063352;28;20068;-78
2023/06/05 11:27:56;;;;;;;;;;;23.50;99.90;;;;;;5074791;28;20028;-76
2023/06/05 11:30:32;;;;;;;6.07;3.58;;;23.70;99.90;;;;;;5074268;28;19904;-76
2023/06/05 11:33:14;;;;;;;8.52;4.15;;;24.00;99.90;;;;;;5055524;28;20051;-77
2023/06/05 11:35:44;;;;;;;4.88;3.85;;;23.40;99.90;;;;;;5056793;28;20060;-78
2023/06/05 11:38:21;;;;;;;6.63;3.55;;;22.80;99.90;;;;;;5071875;28;20092;-78
2023/06/05 11:40:54;;;;;;;4.20;3.80;;;23.30;99.90;;;;;;5076385;28;20024;-78
2023/06/05 11:43:21;;;;;;;3.95;3.50;;;23.50;99.90;;;;;;5073985;28;20044;-79
2023/06/05 11:45:57;;;;;;;4.90;3.85;;;23.30;99.90;;;;;;5076026;28;20586;-78
2023/06/05 11:48:27;;;;;;;4.72;3.72;;;23.40;99.90;;;;;;5081642;28;20037;-78
2023/06/05 11:50:59;;;;;;;4.95;3.90;;;23.50;99.90;;;;;;5077572;28;20060;-78
2023/06/05 11:53:26;;;;;;;4.95;3.50;;;23.60;99.90;;;;;;5084803;28;20029;-78
2023/06/05 11:58:29;;;;;;;6.05;4.18;;;24.20;99.90;;;;;;5079915;28;20035;-78
2023/06/05 12:01:17;;;;;;;4.60;3.65;;;24.10;99.90;;;;;;5073847;28;20044;-77
2023/06/05 12:03:45;;;;;;;5.15;3.60;;;24.20;99.90;;;;;;5060227;28;20051;-78
2023/06/05 12:06:17;;;;;;;4.45;3.80;;;24.30;99.90;;;;;;5074770;28;20041;-78
2023/06/05 12:08:44;;;;;;;5.55;4.10;;;24.40;99.90;;;;;;5076033;28;20103;-79
2023/06/05 12:11:29;;;;;;;5.90;4.10;;;24.50;99.90;;;;;;5064440;28;20024;-79
2023/06/05 12:13:57;;;;;;;7.13;4.30;;;24.40;99.90;;;;;;5083224;28;20024;-79
2023/06/05 12:16:36;;;;;;;;;;;24.40;99.90;;;;;;5065615;28;20058;-79
2023/06/05 12:19:14;;;;;;;4.97;4.28;;;24.40;99.90;;;;;;5062631;28;19920;-78
2023/06/05 12:21:40;;;;;;;4.30;3.90;;;24.30;99.90;;;;;;5077975;28;20059;-78
2023/06/05 12:24:06;;;;;;;5.63;4.45;;;24.20;99.90;;;;;;5079240;28;20039;-78
2023/06/05 12:27:11;;;;;;;5.20;4.15;;;23.80;99.90;;;;;;5076299;28;20046;-78
2023/06/05 12:29:38;;;;;;;4.80;3.83;;;24.00;99.90;;;;;;4980240;28;20104;-78
2023/06/05 12:32:24;;;;;;;4.73;4.17;;;24.10;99.90;;;;;;5064564;28;20043;-79
2023/06/05 12:34:51;;;;;;;4.53;3.80;;;24.20;99.90;;;;;;5068373;28;20035;-78
2023/06/05 12:37:29;;;;;;;7.35;4.20;;;24.40;99.90;;;;;;5076950;28;20032;-78
2023/06/05 12:39:59;;;;;;;6.00;3.70;;;24.60;99.90;;;;;;5064084;28;20075;-79
2023/06/05 12:42:25;;;;;;;5.55;4.40;;;24.40;99.90;;;;;;5080284;28;20408;-78
2023/06/05 12:44:50;;;;;;;6.03;4.07;;;24.20;99.90;;;;;;5082061;28;20072;-77
2023/06/05 12:47:17;;;;;;;4.25;3.85;;;24.20;99.90;;;;;;5074318;28;20072;-78
2023/06/05 12:49:42;;;;;;;5.30;4.18;;;24.20;99.90;;;;;;5075686;28;20035;-77
2023/06/05 12:52:08;;;;;;;5.72;3.63;;;24.40;99.90;;;;;;5080100;28;20037;-78
2023/06/05 12:54:36;;;;;;;6.00;4.25;;;24.20;99.90;;;;;;5076760;28;20108;-78
2023/06/05 12:57:02;;;;;;;;;;;24.00;99.90;;;;;;5071740;28;20036;-79
2023/06/05 12:59:27;;;;;;;5.78;3.83;;;24.20;99.90;;;;;;5075122;28;20132;-78
2023/06/05 13:01:53;;;;;;;4.32;3.83;;;24.40;99.90;;;;;;5081865;28;20044;-78
2023/06/05 13:04:19;;;;;;;4.45;3.63;;;24.30;99.90;;;;;;5082370;28;20030;-79
2023/06/05 13:06:46;;;;;;;5.85;4.07;;;24.50;99.90;;;;;;5082275;28;20036;-80
2023/06/05 13:09:12;;;;;;;6.13;4.40;;;24.80;99.90;;;;;;5071634;28;20116;-79
2023/06/05 13:11:38;;;;;;;6.10;4.38;;;24.90;99.90;;;;;;5076161;28;20049;-78
2023/06/05 13:14:03;;;;;;;5.07;4.28;;;24.50;99.90;;;;;;5081480;28;20074;-78
2023/06/05 13:16:29;;;;;;;4.70;4.18;;;24.60;99.90;;;;;;5069456;28;20041;-78
2023/06/05 13:18:55;;;;;;;5.82;4.10;;;24.40;99.90;;;;;;5078317;28;20438;-78
2023/06/05 13:21:21;;;;;;;5.03;4.22;;;24.40;99.90;;;;;;5060379;28;20033;-78
2023/06/05 13:23:46;;;;;;;5.00;4.30;;;24.30;99.90;;;;;;5078458;28;20028;-79
2023/06/05 13:26:12;;;;;;;5.65;4.20;;;24.40;99.90;;;;;;5076052;28;20031;-79
2023/06/05 13:28:38;;;;;;;5.45;4.25;;;24.40;99.90;;;;;;5056949;28;20036;-79
2023/06/05 13:31:05;;;;;;;5.13;4.20;;;24.30;99.90;;;;;;5081233;28;20040;-78
2023/06/05 13:33:33;;;;;;;8.70;4.38;;;24.20;99.90;;;;;;5067341;28;20025;-79
2023/06/05 13:35:58;;;;;;;6.07;4.20;;;24.30;99.90;;;;;;5053579;28;20515;-77
2023/06/05 13:38:24;;;;;;;6.25;4.28;;;24.40;99.90;;;;;;5076566;28;20071;-77
2023/06/05 13:40:51;;;;;;;5.72;4.13;;;24.40;99.90;;;;;;5074840;28;20035;-78
2023/06/05 13:43:17;;;;;;;8.52;4.72;;;24.40;99.90;;;;;;5081397;28;20037;-78
2023/06/05 13:45:43;;;;;;;5.90;4.07;;;24.40;99.90;;;;;;5081635;28;20040;-78
2023/06/05 13:48:09;;;;;;;7.03;4.28;;;24.30;99.90;;;;;;5074772;28;20028;-78
2023/06/05 13:50:35;;;;;;;5.07;4.38;;;24.30;99.90;;;;;;5074531;28;20039;-78
2023/06/05 13:53:01;;;;;;;5.93;4.15;;;23.90;99.90;;;;;;5071353;28;20036;-78